createdAt,value
2023-05-23T00:01:24.960Z,97228.81
2023-05-23T00:03:56.005Z,97240.13
2023-05-23T00:06:24.224Z,97241.94
2023-05-23T00:08:52.240Z,97228.94
2023-05-23T00:11:20.488Z,97238.31
2023-05-23T00:13:48.292Z,97238.31
2023-05-23T00:16:16.428Z,97229.50
2023-05-23T00:18:46.014Z,97246.56
2023-05-23T00:21:14.595Z,97249.91
2023-05-23T00:23:43.350Z,97251.47
2023-05-23T00:26:11.145Z,97248.09
2023-05-23T00:28:39.295Z,97242.50
2023-05-23T00:31:07.387Z,97247.81
2023-05-23T00:33:36.370Z,97249.50
2023-05-23T00:36:06.158Z,97238.84
2023-05-23T00:38:33.967Z,97249.34
2023-05-23T00:41:02.736Z,97242.50
2023-05-23T00:43:30.588Z,97236.63
2023-05-23T00:45:58.483Z,97245.03
2023-05-23T00:48:26.926Z,97248.50
2023-05-23T00:50:55.328Z,97254.81
2023-05-23T00:53:24.526Z,97257.63
2023-05-23T00:55:52.387Z,97257.88
2023-05-23T00:58:20.225Z,97246.97
2023-05-23T01:00:50.417Z,97267.97
2023-05-23T01:03:19.080Z,97256.22
2023-05-23T01:05:46.926Z,97259.84
2023-05-23T01:08:15.922Z,97269.63
2023-05-23T01:10:45.245Z,97268.78
2023-05-23T01:13:22.652Z,97259.56
2023-05-23T01:16:03.324Z,97261.81
2023-05-23T01:18:35.550Z,97269.63
2023-05-23T01:21:08.292Z,97263.72
2023-05-23T01:24:06.071Z,97259.69
2023-05-23T01:26:45.794Z,97259.25
2023-05-23T01:29:16.449Z,97258.09
2023-05-23T01:31:45.688Z,97263.25
2023-05-23T01:34:14.352Z,97268.41
2023-05-23T01:36:43.875Z,97260.69
2023-05-23T01:39:12.066Z,97260.28
2023-05-23T01:41:39.893Z,97267.56
2023-05-23T01:44:07.914Z,97266.66
2023-05-23T01:46:39.243Z,97246.78
2023-05-23T01:49:09.784Z,97262.16
2023-05-23T01:51:37.813Z,97268.84
2023-05-23T01:54:05.862Z,97263.09
2023-05-23T01:56:33.893Z,97273.13
2023-05-23T01:59:02.062Z,97264.75
2023-05-23T02:01:29.982Z,97283.59
2023-05-23T02:03:59.139Z,97276.28
2023-05-23T02:06:26.925Z,97281.53
2023-05-23T02:08:54.689Z,97279.53
2023-05-23T02:11:22.648Z,97285.47
2023-05-23T02:13:50.502Z,97287.41
2023-05-23T02:16:18.670Z,97292.22
2023-05-23T02:18:47.077Z,97283.00
2023-05-23T02:21:16.350Z,97292.31
2023-05-23T02:23:44.222Z,97292.94
2023-05-23T02:26:12.115Z,97295.84
2023-05-23T02:28:39.918Z,97289.84
2023-05-23T02:31:07.825Z,97301.53
2023-05-23T02:33:35.738Z,97295.78
2023-05-23T02:36:03.772Z,97291.84
2023-05-23T02:38:32.978Z,97291.13
2023-05-23T02:41:00.927Z,97300.88
2023-05-23T02:43:29.170Z,97302.22
2023-05-23T02:45:56.985Z,97294.63
2023-05-23T02:48:24.877Z,97316.81
2023-05-23T02:50:52.856Z,97313.69
2023-05-23T02:53:20.752Z,97323.56
2023-05-23T02:55:49.932Z,97321.56
2023-05-23T02:58:17.750Z,97323.59
2023-05-23T03:00:45.566Z,97314.94
2023-05-23T03:03:13.619Z,97319.75
2023-05-23T03:05:42.399Z,97319.41
2023-05-23T03:08:10.937Z,97323.16
2023-05-23T03:10:39.000Z,97327.75
2023-05-23T03:13:08.602Z,97324.13
2023-05-23T03:15:36.593Z,97315.22
2023-05-23T03:18:04.844Z,97315.63
2023-05-23T03:20:32.947Z,97319.44
2023-05-23T03:23:01.011Z,97315.00
2023-05-23T03:25:29.036Z,97316.94
2023-05-23T03:27:57.138Z,97324.88
2023-05-23T03:30:26.584Z,97329.19
2023-05-23T03:32:54.632Z,97319.59
2023-05-23T03:35:22.702Z,97316.94
2023-05-23T03:37:50.803Z,97318.38
2023-05-23T03:40:18.836Z,97327.16
2023-05-23T03:42:49.163Z,97322.81
2023-05-23T03:45:18.530Z,97325.94
2023-05-23T03:47:48.077Z,97326.53
2023-05-23T03:50:16.141Z,97333.25
2023-05-23T03:52:44.227Z,97329.41
2023-05-23T03:55:12.607Z,97333.75
2023-05-23T03:57:40.688Z,97334.72
2023-05-23T04:00:12.345Z,97341.94
2023-05-23T04:02:41.030Z,97340.25
2023-05-23T04:05:11.116Z,97337.59
2023-05-23T04:07:39.281Z,97332.09
2023-05-23T04:10:08.735Z,97337.28
2023-05-23T04:12:36.822Z,97340.63
2023-05-23T04:15:05.428Z,97350.34
2023-05-23T04:17:33.649Z,97344.94
2023-05-23T04:20:01.857Z,97349.91
2023-05-23T04:22:31.115Z,97353.50
2023-05-23T04:24:58.985Z,97344.34
2023-05-23T04:27:26.792Z,97361.91
2023-05-23T04:29:56.487Z,97363.81
2023-05-23T04:32:24.428Z,97373.91
2023-05-23T04:34:52.291Z,97362.63
2023-05-23T04:37:22.206Z,97369.13
2023-05-23T04:39:51.418Z,97362.88
2023-05-23T04:42:24.540Z,97367.06
2023-05-23T04:44:53.209Z,97361.53
2023-05-23T04:47:21.051Z,97352.00
2023-05-23T04:49:49.054Z,97367.66
2023-05-23T04:52:19.125Z,97363.56
2023-05-23T04:54:48.901Z,97360.06
2023-05-23T04:57:18.338Z,97365.94
2023-05-23T04:59:46.627Z,97365.94
2023-05-23T05:02:14.472Z,97366.56
2023-05-23T05:04:42.297Z,97364.75
2023-05-23T05:07:10.118Z,97360.16
2023-05-23T05:09:38.189Z,97371.69
2023-05-23T05:12:06.231Z,97370.38
2023-05-23T05:14:35.514Z,97376.25
2023-05-23T05:17:04.139Z,97377.72
2023-05-23T05:19:32.217Z,97375.53
2023-05-23T05:22:00.287Z,97382.25
2023-05-23T05:24:29.085Z,97389.50
2023-05-23T05:26:57.463Z,97380.56
2023-05-23T05:29:25.363Z,97355.09
2023-05-23T05:31:54.688Z,97394.78
2023-05-23T05:34:23.397Z,97392.59
2023-05-23T05:36:55.922Z,97397.63
2023-05-23T05:39:25.588Z,97395.13
2023-05-23T05:41:53.381Z,97400.16
2023-05-23T05:44:21.223Z,97395.72
2023-05-23T05:46:49.633Z,97378.75
2023-05-23T05:49:18.820Z,97375.47
2023-05-23T05:51:46.650Z,97370.75
2023-05-23T05:54:14.509Z,97392.59
2023-05-23T05:56:43.155Z,97391.50
2023-05-23T05:59:11.140Z,97405.56
2023-05-23T06:01:39.060Z,97397.84
2023-05-23T06:04:07.024Z,97410.97
2023-05-23T06:06:36.407Z,97407.16
2023-05-23T06:09:04.395Z,97391.72
2023-05-23T06:11:32.625Z,97415.09
2023-05-23T06:14:00.636Z,97415.34
2023-05-23T06:16:28.667Z,97419.81
2023-05-23T06:18:59.793Z,97419.94
2023-05-23T06:21:27.863Z,97428.41
2023-05-23T06:23:57.579Z,97427.44
2023-05-23T06:26:26.314Z,97338.81
2023-05-23T06:28:54.267Z,97430.19
2023-05-23T06:31:22.157Z,97440.22
2023-05-23T06:33:50.080Z,97413.22
2023-05-23T06:36:17.983Z,97438.94
2023-05-23T06:38:45.841Z,97442.09
2023-05-23T06:41:15.067Z,97442.97
2023-05-23T06:43:45.884Z,97441.09
2023-05-23T06:46:13.739Z,97441.09
2023-05-23T06:48:41.967Z,97438.13
2023-05-23T06:51:10.556Z,97441.59
2023-05-23T06:53:38.467Z,97447.91
2023-05-23T06:56:06.699Z,97456.41
2023-05-23T06:58:35.997Z,97446.41
2023-05-23T07:01:03.786Z,97454.78
2023-05-23T07:03:31.669Z,97466.50
2023-05-23T07:05:59.533Z,97467.13
2023-05-23T07:08:27.415Z,97468.75
2023-05-23T07:10:55.214Z,97475.16
2023-05-23T07:13:23.137Z,97476.03
2023-05-23T07:15:52.289Z,97483.59
2023-05-23T07:18:20.108Z,97482.84
2023-05-23T07:20:47.897Z,97496.06
2023-05-23T07:23:17.245Z,97494.44
2023-05-23T07:26:00.533Z,97486.75
2023-05-23T07:28:30.480Z,97498.56
2023-05-23T07:30:59.788Z,97500.72
2023-05-23T07:33:27.647Z,97500.03
2023-05-23T07:35:55.557Z,97503.84
2023-05-23T07:38:23.390Z,97490.06
2023-05-23T07:41:02.580Z,97503.00
2023-05-23T07:43:38.263Z,97499.91
2023-05-23T07:46:07.836Z,97496.00
2023-05-23T07:48:35.890Z,97517.56
2023-05-23T07:51:04.029Z,97485.75
2023-05-23T07:53:31.861Z,97494.19
2023-05-23T07:55:59.655Z,97506.84
2023-05-23T07:58:27.447Z,97515.44
2023-05-23T08:00:55.257Z,97522.09
2023-05-23T08:03:24.555Z,97521.63
2023-05-23T08:05:52.516Z,97536.06
2023-05-23T08:08:20.358Z,97530.91
2023-05-23T08:10:48.319Z,97537.75
2023-05-23T08:13:16.456Z,97536.91
2023-05-23T08:15:45.565Z,97535.16
2023-05-23T08:18:14.076Z,97536.38
2023-05-23T08:20:56.912Z,97542.72
2023-05-23T08:23:24.778Z,97536.44
2023-05-23T08:25:53.631Z,97539.53
2023-05-23T08:28:21.537Z,97545.84
2023-05-23T08:30:49.620Z,97546.22
2023-05-23T08:33:17.440Z,97537.41
2023-05-23T08:35:45.299Z,97524.81
2023-05-23T08:38:14.487Z,97522.63
2023-05-23T08:40:42.860Z,97540.84
2023-05-23T08:43:12.493Z,97530.94
2023-05-23T08:45:40.819Z,97521.84
2023-05-23T08:48:10.025Z,97535.31
2023-05-23T08:50:39.438Z,97533.31
2023-05-23T08:53:08.657Z,97525.22
2023-05-23T08:55:39.405Z,97548.16
2023-05-23T08:58:07.631Z,97539.22
2023-05-23T09:00:36.095Z,97551.19
2023-05-23T09:03:04.067Z,97540.81
2023-05-23T09:05:32.062Z,97549.16
2023-05-23T09:08:00.051Z,97556.72
2023-05-23T09:10:29.971Z,97560.34
2023-05-23T09:12:59.257Z,97554.94
2023-05-23T09:15:27.516Z,97554.41
2023-05-23T09:17:55.441Z,97559.94
2023-05-23T09:20:23.367Z,97552.81
2023-05-23T09:22:51.150Z,97551.56
2023-05-23T09:25:19.043Z,97554.63
2023-05-23T09:27:48.363Z,97560.81
2023-05-23T09:30:19.105Z,97561.66
2023-05-23T09:33:01.242Z,97566.69
2023-05-23T09:35:31.083Z,97572.59
2023-05-23T09:38:00.325Z,97567.13
2023-05-23T09:40:33.086Z,97572.00
2023-05-23T09:43:04.083Z,97576.50
2023-05-23T09:45:34.281Z,97579.56
2023-05-23T09:48:02.719Z,97573.84
2023-05-23T09:50:33.547Z,97569.44
2023-05-23T09:53:01.789Z,97565.50
2023-05-23T09:55:29.700Z,97575.84
2023-05-23T09:58:00.350Z,97570.78
2023-05-23T10:00:28.587Z,97567.41
2023-05-23T10:03:08.510Z,97591.03
2023-05-23T10:05:38.124Z,97574.31
2023-05-23T10:08:10.766Z,97588.63
2023-05-23T10:11:17.107Z,97588.63
2023-05-23T10:13:46.244Z,97588.66
2023-05-23T10:16:18.340Z,97586.59
2023-05-23T10:18:50.648Z,97589.75
2023-05-23T10:21:20.950Z,97587.00
2023-05-23T10:23:49.204Z,97591.06
2023-05-23T10:26:17.511Z,97597.53
2023-05-23T10:28:45.460Z,97567.38
2023-05-23T10:31:13.931Z,97605.22
2023-05-23T10:33:44.098Z,97594.66
2023-05-23T10:36:19.486Z,97610.19
2023-05-23T10:38:52.187Z,97608.94
2023-05-23T10:41:25.175Z,97616.16
2023-05-23T10:43:57.864Z,97599.97
2023-05-23T10:46:53.058Z,97615.16
2023-05-23T10:49:21.314Z,97621.53
2023-05-23T10:51:52.301Z,97613.16
2023-05-23T10:54:21.192Z,97612.06
2023-05-23T10:56:49.698Z,97618.47
2023-05-23T10:59:28.922Z,97617.50
2023-05-23T11:01:57.065Z,97632.13
2023-05-23T11:04:28.696Z,97632.34
2023-05-23T11:06:58.157Z,97632.13
2023-05-23T11:09:26.160Z,97637.25
2023-05-23T11:12:00.807Z,97637.25
2023-05-23T11:14:54.838Z,97627.78
2023-05-23T11:17:34.120Z,97629.81
2023-05-23T11:20:06.548Z,97619.78
2023-05-23T11:22:36.161Z,97629.81
2023-05-23T11:25:08.928Z,97631.34
2023-05-23T11:27:38.963Z,97633.91
2023-05-23T11:30:09.508Z,97633.63
2023-05-23T11:32:38.326Z,97649.94
2023-05-23T11:35:07.699Z,97650.09
2023-05-23T11:37:37.261Z,97642.03
2023-05-23T11:40:26.912Z,97640.31
2023-05-23T11:42:54.968Z,97638.81
2023-05-23T11:45:23.642Z,97631.84
2023-05-23T11:47:51.506Z,97630.56
2023-05-23T11:50:20.517Z,97631.97
2023-05-23T11:52:52.373Z,97638.13
2023-05-23T11:55:21.178Z,97637.16
2023-05-23T11:57:49.170Z,97649.69
2023-05-23T12:00:18.086Z,97643.16
2023-05-23T12:02:47.736Z,97633.81
2023-05-23T12:05:16.379Z,97665.31
2023-05-23T12:07:45.407Z,97664.25
2023-05-23T12:10:16.414Z,97656.94
2023-05-23T12:12:44.547Z,97662.53
2023-05-23T12:15:13.661Z,97661.19
2023-05-23T12:17:46.004Z,97631.69
2023-05-23T12:20:14.225Z,97669.22
2023-05-23T12:22:43.097Z,97659.78
2023-05-23T12:25:11.682Z,97668.28
2023-05-23T12:27:44.070Z,97668.69
2023-05-23T12:30:14.716Z,97670.63
2023-05-23T12:32:43.527Z,97673.66
2023-05-23T12:35:13.195Z,97669.25
2023-05-23T12:37:43.053Z,97669.25
2023-05-23T12:40:13.050Z,97677.47
2023-05-23T12:42:52.632Z,97677.63
2023-05-23T12:45:20.680Z,97675.13
2023-05-23T12:47:49.134Z,97681.13
2023-05-23T12:50:18.532Z,97674.69
2023-05-23T12:52:46.366Z,97682.53
2023-05-23T12:55:14.534Z,97679.81
2023-05-23T12:57:42.345Z,97680.09
2023-05-23T13:00:12.922Z,97678.91
2023-05-23T13:02:40.869Z,97683.25
2023-05-23T13:05:09.455Z,97685.72
2023-05-23T13:07:38.017Z,97678.16
2023-05-23T13:10:06.665Z,97682.56
2023-05-23T13:12:34.819Z,97676.91
2023-05-23T13:15:02.689Z,97676.38
2023-05-23T13:17:32.038Z,97671.69
2023-05-23T13:19:59.920Z,97668.38
2023-05-23T13:22:27.776Z,97660.66
2023-05-23T13:24:55.615Z,97670.63
2023-05-23T13:27:23.455Z,97671.97
2023-05-23T13:29:51.296Z,97673.41
2023-05-23T13:32:19.201Z,97677.56
2023-05-23T13:34:48.447Z,97684.94
2023-05-23T13:37:16.300Z,97695.09
2023-05-23T13:39:44.085Z,97692.72
2023-05-23T13:42:12.404Z,97698.88
2023-05-23T13:44:40.209Z,97689.25
2023-05-23T13:47:13.229Z,97671.72
2023-05-23T13:49:41.534Z,97688.31
2023-05-23T13:52:10.778Z,97691.16
2023-05-23T13:54:38.607Z,97688.03
2023-05-23T13:57:07.104Z,97699.44
2023-05-23T13:59:35.033Z,97692.53
2023-05-23T14:02:02.865Z,97692.22
2023-05-23T14:04:30.789Z,97696.44
2023-05-23T14:06:58.580Z,97710.47
2023-05-23T14:09:27.768Z,97711.09
2023-05-23T14:11:55.730Z,97712.44
2023-05-23T14:14:23.797Z,97705.84
2023-05-23T14:16:52.110Z,97721.63
2023-05-23T14:19:20.264Z,97705.09
2023-05-23T14:21:48.117Z,97697.03
2023-05-23T14:24:16.002Z,97711.47
2023-05-23T14:26:45.189Z,97701.47
2023-05-23T14:29:13.009Z,97698.94
2023-05-23T14:31:40.936Z,97689.50
2023-05-23T14:34:08.896Z,97671.41
2023-05-23T14:36:37.081Z,97690.56
2023-05-23T14:39:05.993Z,97687.13
2023-05-23T14:41:34.701Z,97689.59
2023-05-23T14:44:04.635Z,97683.53
2023-05-23T14:46:32.607Z,97686.59
2023-05-23T14:49:00.413Z,97679.53
2023-05-23T14:51:42.916Z,97684.84
2023-05-23T14:54:13.042Z,97694.13
2023-05-23T14:56:41.235Z,97687.91
2023-05-23T14:59:11.092Z,97689.44
2023-05-23T15:01:40.487Z,97691.75
2023-05-23T15:04:09.682Z,97695.25
2023-05-23T15:06:38.385Z,97697.97
2023-05-23T15:09:06.419Z,97698.94
2023-05-23T15:11:34.993Z,97686.84
2023-05-23T15:14:02.999Z,97683.00
2023-05-23T15:16:33.433Z,97679.13
2023-05-23T15:19:01.495Z,97688.03
2023-05-23T15:21:29.486Z,97687.47
2023-05-23T15:23:57.807Z,97684.09
2023-05-23T15:26:26.824Z,97685.38
2023-05-23T15:28:54.611Z,97690.78
2023-05-23T15:31:22.721Z,97682.38
2023-05-23T15:33:52.049Z,97700.91
2023-05-23T15:36:19.934Z,97699.91
2023-05-23T15:38:47.754Z,97700.84
2023-05-23T15:41:15.558Z,97703.44
2023-05-23T15:43:43.320Z,97702.97
2023-05-23T15:46:11.313Z,97712.13
2023-05-23T15:48:39.183Z,97708.63
2023-05-23T15:51:08.412Z,97711.25
2023-05-23T15:53:47.851Z,97709.00
2023-05-23T15:56:24.028Z,97708.19
2023-05-23T15:58:51.813Z,97715.28
2023-05-23T16:01:19.770Z,97712.22
2023-05-23T16:03:48.596Z,97712.41
2023-05-23T16:06:18.038Z,97710.91
2023-05-23T16:08:45.893Z,97712.22
2023-05-23T16:11:13.674Z,97710.41
2023-05-23T16:13:41.486Z,97702.84
2023-05-23T16:16:09.326Z,97712.38
2023-05-23T16:18:37.251Z,97698.88
2023-05-23T16:21:05.690Z,97705.47
2023-05-23T16:23:34.874Z,97702.88
2023-05-23T16:26:02.843Z,97701.03
2023-05-23T16:28:30.643Z,97697.09
2023-05-23T16:30:58.483Z,97697.44
2023-05-23T16:33:26.319Z,97692.50
2023-05-23T16:35:54.063Z,97693.25
2023-05-23T16:38:21.829Z,97700.06
2023-05-23T16:40:50.985Z,97698.28
2023-05-23T16:43:18.759Z,97686.16
2023-05-23T16:45:46.872Z,97687.34
2023-05-23T16:48:15.111Z,97687.09
2023-05-23T16:50:43.031Z,97676.72
2023-05-23T16:53:11.142Z,97687.75
2023-05-23T16:55:39.177Z,97694.59
2023-05-23T16:58:08.367Z,97693.03
2023-05-23T17:00:36.194Z,97687.91
2023-05-23T17:03:04.214Z,97689.19
2023-05-23T17:05:32.038Z,97688.78
2023-05-23T17:07:59.892Z,97692.34
2023-05-23T17:10:27.698Z,97693.16
2023-05-23T17:12:55.692Z,97693.94
2023-05-23T17:15:25.616Z,97695.31
2023-05-23T17:17:53.465Z,97695.97
2023-05-23T17:20:24.044Z,97701.28
2023-05-23T17:22:51.989Z,97703.09
2023-05-23T17:25:19.776Z,97682.06
2023-05-23T17:27:47.530Z,97685.13
2023-05-23T17:30:18.473Z,97681.19
2023-05-23T17:32:47.935Z,97690.56
2023-05-23T17:35:15.906Z,97693.88
2023-05-23T17:37:45.096Z,97691.91
2023-05-23T17:40:13.965Z,97665.69
2023-05-23T17:42:42.582Z,97698.91
2023-05-23T17:45:11.209Z,97694.56
2023-05-23T17:47:39.348Z,97697.97
2023-05-23T17:50:09.825Z,97691.47
2023-05-23T17:52:37.829Z,97698.44
2023-05-23T17:55:06.433Z,97699.63
2023-05-23T17:57:34.297Z,97703.44
2023-05-23T18:00:02.115Z,97698.75
2023-05-23T18:02:29.925Z,97697.88
2023-05-23T18:04:57.703Z,97704.38
2023-05-23T18:07:26.921Z,97706.03
2023-05-23T18:09:54.793Z,97711.44
2023-05-23T18:12:22.725Z,97717.06
2023-05-23T18:14:52.168Z,97705.75
2023-05-23T18:17:20.185Z,97712.00
2023-05-23T18:19:48.072Z,97714.25
2023-05-23T18:22:16.656Z,97704.97
2023-05-23T18:24:45.974Z,97712.63
2023-05-23T18:27:13.938Z,97710.59
2023-05-23T18:29:41.780Z,97716.88
2023-05-23T18:32:09.736Z,97722.06
2023-05-23T18:34:39.375Z,97727.59
2023-05-23T18:37:07.315Z,97724.66
2023-05-23T18:39:35.118Z,97718.31
2023-05-23T18:42:04.316Z,97724.06
2023-05-23T18:44:32.058Z,97726.50
2023-05-23T18:46:59.987Z,97719.53
2023-05-23T18:49:27.846Z,97729.78
2023-05-23T18:51:55.825Z,97725.59
2023-05-23T18:54:23.634Z,97731.09
2023-05-23T18:56:51.626Z,97733.31
2023-05-23T18:59:20.914Z,97733.75
2023-05-23T19:01:48.886Z,97728.69
2023-05-23T19:04:17.405Z,97738.84
2023-05-23T19:06:46.347Z,97724.34
2023-05-23T19:09:14.192Z,97746.00
2023-05-23T19:11:42.027Z,97746.97
2023-05-23T19:14:09.967Z,97750.75
2023-05-23T19:16:40.017Z,97762.16
2023-05-23T19:19:07.851Z,97767.56
2023-05-23T19:21:35.698Z,97765.53
2023-05-23T19:24:07.331Z,97766.81
2023-05-23T19:26:35.250Z,97771.34
2023-05-23T19:29:03.405Z,97774.19
2023-05-23T19:31:31.661Z,97725.75
2023-05-23T19:34:00.948Z,97772.69
2023-05-23T19:36:28.744Z,97769.34
2023-05-23T19:38:56.678Z,97773.53
2023-05-23T19:41:24.483Z,97773.53
2023-05-23T19:43:52.363Z,97775.56
2023-05-23T19:46:20.337Z,97773.34
2023-05-23T19:48:48.778Z,97772.47
2023-05-23T19:51:17.906Z,97777.09
2023-05-23T19:53:45.739Z,97777.31
2023-05-23T19:56:13.860Z,97777.03
2023-05-23T19:58:41.731Z,97781.97
2023-05-23T20:01:09.570Z,97785.41
2023-05-23T20:03:37.669Z,97791.94
2023-05-23T20:06:05.929Z,97790.25
2023-05-23T20:08:35.217Z,97796.28
2023-05-23T20:11:03.050Z,97789.00
2023-05-23T20:13:31.119Z,97796.81
2023-05-23T20:15:59.143Z,97803.22
2023-05-23T20:18:27.902Z,97809.66
2023-05-23T20:20:56.156Z,97812.59
2023-05-23T20:23:24.679Z,97808.91
2023-05-23T20:25:54.593Z,97810.81
2023-05-23T20:28:24.461Z,97814.47
2023-05-23T20:30:52.721Z,97825.13
2023-05-23T20:33:20.827Z,97823.41
2023-05-23T20:35:49.753Z,97830.38
2023-05-23T20:38:18.559Z,97828.59
2023-05-23T20:40:49.579Z,97822.56
2023-05-23T20:43:22.266Z,97822.88
2023-05-23T20:45:50.526Z,97821.19
2023-05-23T20:48:18.351Z,97824.03
2023-05-23T20:50:46.324Z,97825.91
2023-05-23T20:53:14.073Z,97834.00
2023-05-23T20:55:42.538Z,97827.63
2023-05-23T20:58:10.504Z,97826.94
2023-05-23T21:00:39.838Z,97826.47
2023-05-23T21:03:07.907Z,97834.69
2023-05-23T21:05:35.924Z,97827.81
2023-05-23T21:08:04.486Z,97829.97
2023-05-23T21:10:32.874Z,97830.28
2023-05-23T21:13:00.706Z,97830.34
2023-05-23T21:15:28.686Z,97831.13
2023-05-23T21:17:57.997Z,97819.72
2023-05-23T21:20:25.816Z,97835.16
2023-05-23T21:22:53.750Z,97837.03
2023-05-23T21:25:21.866Z,97838.94
2023-05-23T21:27:50.044Z,97838.53
2023-05-23T21:30:17.922Z,97852.81
2023-05-23T21:32:46.438Z,97845.56
2023-05-23T21:35:15.917Z,97845.38
2023-05-23T21:37:43.711Z,97846.03
2023-05-23T21:40:11.858Z,97846.78
2023-05-23T21:42:40.216Z,97856.28
2023-05-23T21:45:09.157Z,97841.44
2023-05-23T21:47:37.007Z,97858.25
2023-05-23T21:50:05.220Z,97855.22
2023-05-23T21:52:34.718Z,97861.72
2023-05-23T21:55:03.051Z,97862.28
2023-05-23T21:57:34.140Z,97873.78
2023-05-23T22:00:02.300Z,97876.75
2023-05-23T22:02:30.574Z,97876.00
2023-05-23T22:04:58.871Z,97870.16
2023-05-23T22:07:27.039Z,97881.78
2023-05-23T22:09:56.546Z,97877.81
2023-05-23T22:12:25.480Z,97876.88
2023-05-23T22:14:53.636Z,97877.03
2023-05-23T22:17:22.917Z,97882.50
2023-05-23T22:19:52.054Z,97883.78
2023-05-23T22:22:20.080Z,97890.41
2023-05-23T22:24:47.889Z,97887.09
2023-05-23T22:27:17.056Z,97888.97
2023-05-23T22:29:44.872Z,97893.53
2023-05-23T22:32:12.630Z,97893.72
2023-05-23T22:34:40.440Z,97892.44
2023-05-23T22:37:08.230Z,97884.31
2023-05-23T22:39:36.067Z,97880.47
2023-05-23T22:42:04.363Z,97863.84
2023-05-23T22:44:33.543Z,97882.66
2023-05-23T22:47:03.771Z,97880.97
2023-05-23T22:49:32.086Z,97879.19
2023-05-23T22:51:59.938Z,97880.13
2023-05-23T22:54:27.743Z,97883.69
2023-05-23T22:56:55.871Z,97875.88
2023-05-23T22:59:23.670Z,97878.84
2023-05-23T23:01:52.844Z,97880.63
2023-05-23T23:04:23.566Z,97885.03
2023-05-23T23:06:53.979Z,97880.78
2023-05-23T23:09:21.825Z,97884.50
2023-05-23T23:11:49.626Z,97878.41
2023-05-23T23:14:17.359Z,97882.13
2023-05-23T23:16:46.341Z,97883.81
2023-05-23T23:19:16.751Z,97874.31
2023-05-23T23:21:44.722Z,97873.63
2023-05-23T23:24:13.633Z,97878.88
2023-05-23T23:26:41.611Z,97872.97
2023-05-23T23:29:09.433Z,97874.13
2023-05-23T23:34:25.142Z,97886.81
2023-05-23T23:36:52.972Z,97884.34
2023-05-23T23:39:21.138Z,97875.72
2023-05-23T23:41:49.171Z,97883.81
2023-05-23T23:44:17.096Z,97878.81
2023-05-23T23:46:45.337Z,97879.13
2023-05-23T23:49:15.464Z,97875.03
2023-05-23T23:51:44.799Z,97869.25
2023-05-23T23:54:12.621Z,97869.56
2023-05-23T23:56:40.620Z,97872.19
2023-05-23T23:59:08.832Z,97860.50
